createdAt,value
2022-10-25T00:01:17.898Z,81.23
2022-10-25T00:03:47.125Z,80.99
2022-10-25T00:06:16.342Z,80.84
2022-10-25T00:08:43.562Z,80.94
2022-10-25T00:11:20.744Z,81.14
2022-10-25T00:13:56.654Z,80.96
2022-10-25T00:16:27.752Z,82.25
2022-10-25T00:18:54.991Z,81.78
2022-10-25T00:21:22.014Z,81.96
2022-10-25T00:23:49.266Z,81.72
2022-10-25T00:26:16.446Z,82.02
2022-10-25T00:28:43.687Z,81.41
2022-10-25T00:31:16.937Z,81.66
2022-10-25T00:33:45.264Z,81.77
2022-10-25T00:36:18.994Z,81.69
2022-10-25T00:38:46.401Z,81.83
2022-10-25T00:41:15.814Z,81.77
2022-10-25T00:43:55.675Z,81.77
2022-10-25T00:46:29.334Z,81.86
2022-10-25T00:49:02.439Z,81.91
2022-10-25T00:51:35.164Z,82.19
2022-10-25T00:54:02.084Z,82.44
2022-10-25T00:56:34.098Z,82.21
2022-10-25T00:59:09.222Z,82.21
2022-10-25T01:01:37.520Z,82.03
2022-10-25T01:04:08.287Z,82.66
2022-10-25T01:06:38.799Z,82.13
2022-10-25T01:09:07.255Z,81.42
2022-10-25T01:11:36.254Z,80.79
2022-10-25T01:14:03.854Z,80.83
2022-10-25T01:16:48.934Z,80.09
2022-10-25T01:19:24.744Z,79.44
2022-10-25T01:21:57.746Z,79.59
2022-10-25T01:25:07.606Z,80.26
2022-10-25T01:28:05.407Z,79.94
2022-10-25T01:31:00.687Z,80.01
2022-10-25T01:33:40.394Z,80.14
2022-10-25T01:38:47.964Z,80.74
2022-10-25T01:41:24.962Z,80.35
2022-10-25T01:43:51.762Z,80.13
2022-10-25T01:46:18.543Z,80.10
2022-10-25T01:48:52.223Z,80.42
2022-10-25T01:51:19.072Z,80.42
2022-10-25T01:53:51.906Z,80.04
2022-10-25T01:56:24.672Z,79.67
2022-10-25T01:59:29.398Z,79.45
2022-10-25T02:01:59.043Z,79.15
2022-10-25T02:04:37.765Z,79.16
2022-10-25T02:07:53.970Z,78.98
2022-10-25T02:10:29.613Z,79.25
2022-10-25T02:13:03.183Z,78.83
2022-10-25T02:15:35.862Z,78.90
2022-10-25T02:18:07.238Z,78.28
2022-10-25T02:20:36.046Z,78.64
2022-10-25T02:23:06.344Z,78.91
2022-10-25T02:25:35.253Z,78.77
2022-10-25T02:28:09.143Z,79.20
2022-10-25T02:30:38.262Z,79.61
2022-10-25T02:33:05.569Z,79.62
2022-10-25T02:35:34.305Z,79.24
2022-10-25T02:38:01.871Z,79.34
2022-10-25T02:40:29.208Z,79.80
2022-10-25T02:42:56.137Z,79.52
2022-10-25T02:45:23.487Z,79.14
2022-10-25T02:47:50.443Z,79.57
2022-10-25T02:50:17.512Z,79.54
2022-10-25T02:52:44.707Z,80.01
2022-10-25T02:55:11.832Z,80.45
2022-10-25T02:57:38.882Z,80.35
2022-10-25T03:00:07.866Z,80.20
2022-10-25T03:02:34.735Z,80.35
2022-10-25T03:05:01.600Z,80.11
2022-10-25T03:07:28.577Z,79.87
2022-10-25T03:09:55.463Z,80.87
2022-10-25T03:12:22.505Z,81.06
2022-10-25T03:14:49.790Z,81.26
2022-10-25T03:17:16.599Z,81.53
2022-10-25T03:19:43.571Z,81.50
2022-10-25T03:22:10.503Z,81.69
2022-10-25T03:24:37.322Z,82.22
2022-10-25T03:27:04.162Z,82.08
2022-10-25T03:29:31.142Z,82.08
2022-10-25T03:31:58.052Z,81.14
2022-10-25T03:34:27.363Z,81.47
2022-10-25T03:36:54.201Z,81.42
2022-10-25T03:39:21.122Z,81.52
2022-10-25T03:41:48.022Z,81.60
2022-10-25T03:44:15.032Z,81.96
2022-10-25T03:46:43.416Z,82.29
2022-10-25T03:49:10.381Z,82.64
2022-10-25T03:51:37.253Z,82.30
2022-10-25T03:54:05.362Z,82.42
2022-10-25T03:56:32.211Z,83.11
2022-10-25T03:58:59.341Z,82.06
2022-10-25T04:01:26.686Z,81.56
2022-10-25T04:03:53.504Z,82.05
2022-10-25T04:06:20.553Z,81.74
2022-10-25T04:08:47.343Z,81.09
2022-10-25T04:11:14.223Z,80.93
2022-10-25T04:13:41.087Z,81.06
2022-10-25T04:16:09.061Z,80.94
2022-10-25T04:18:36.492Z,81.19
2022-10-25T04:21:03.432Z,80.93
2022-10-25T04:23:31.512Z,81.08
2022-10-25T04:25:58.630Z,80.93
2022-10-25T04:28:25.840Z,81.52
2022-10-25T04:30:52.719Z,81.65
2022-10-25T04:33:19.572Z,81.72
2022-10-25T04:35:57.174Z,81.59
2022-10-25T04:38:24.530Z,81.47
2022-10-25T04:40:58.941Z,81.75
2022-10-25T04:43:27.762Z,81.74
2022-10-25T04:45:55.157Z,82.34
2022-10-25T04:48:24.402Z,82.24
2022-10-25T04:50:51.367Z,82.57
2022-10-25T04:53:18.255Z,82.58
2022-10-25T04:55:45.188Z,82.54
2022-10-25T04:58:11.951Z,82.05
2022-10-25T05:00:38.822Z,81.98
2022-10-25T05:03:09.529Z,81.79
2022-10-25T05:05:39.843Z,82.59
2022-10-25T05:08:06.667Z,81.61
2022-10-25T05:10:33.475Z,81.40
2022-10-25T05:13:18.795Z,80.53
2022-10-25T05:15:45.661Z,80.62
2022-10-25T05:18:12.494Z,80.79
2022-10-25T05:20:39.490Z,80.48
2022-10-25T05:23:06.289Z,80.29
2022-10-25T05:25:33.185Z,79.92
2022-10-25T05:28:00.193Z,79.17
2022-10-25T05:30:27.090Z,78.98
2022-10-25T05:32:54.322Z,78.54
2022-10-25T05:35:24.434Z,77.71
2022-10-25T05:37:52.455Z,76.19
2022-10-25T05:40:19.349Z,75.17
2022-10-25T05:42:48.799Z,73.92
2022-10-25T05:45:16.181Z,72.17
2022-10-25T05:47:43.104Z,71.20
2022-10-25T05:50:10.143Z,70.27
2022-10-25T05:52:37.125Z,69.73
2022-10-25T05:55:04.109Z,67.55
2022-10-25T05:57:31.267Z,66.48
2022-10-25T05:59:58.044Z,65.33
2022-10-25T06:02:25.075Z,63.07
2022-10-25T06:05:10.949Z,60.77
2022-10-25T06:07:37.861Z,60.40
2022-10-25T06:10:09.573Z,59.43
2022-10-25T06:12:37.628Z,58.52
2022-10-25T06:15:23.285Z,55.41
2022-10-25T06:17:50.140Z,54.71
2022-10-25T06:20:17.005Z,55.57
2022-10-25T06:22:44.125Z,53.51
2022-10-25T06:25:11.217Z,51.97
2022-10-25T06:27:38.074Z,49.90
2022-10-25T06:30:05.631Z,47.71
2022-10-25T06:32:32.519Z,46.85
2022-10-25T06:34:59.450Z,45.40
2022-10-25T06:37:26.318Z,49.19
2022-10-25T06:39:53.194Z,51.11
2022-10-25T06:42:20.074Z,52.14
2022-10-25T06:44:46.966Z,52.98
2022-10-25T06:47:18.094Z,52.69
2022-10-25T06:49:46.094Z,51.49
2022-10-25T06:52:13.354Z,52.39
2022-10-25T06:54:40.275Z,50.34
2022-10-25T06:57:07.215Z,49.96
2022-10-25T06:59:34.066Z,50.56
2022-10-25T07:02:01.054Z,50.50
2022-10-25T07:04:28.108Z,51.82
2022-10-25T07:06:55.559Z,52.66
2022-10-25T07:09:22.585Z,53.34
2022-10-25T07:11:50.787Z,53.36
2022-10-25T07:14:17.669Z,55.18
2022-10-25T07:16:44.785Z,55.73
2022-10-25T07:19:11.644Z,55.89
2022-10-25T07:21:38.552Z,55.76
2022-10-25T07:24:05.755Z,57.23
2022-10-25T07:26:35.958Z,57.03
2022-10-25T07:29:04.538Z,57.07
2022-10-25T07:31:34.096Z,57.23
2022-10-25T07:34:02.375Z,56.83
2022-10-25T07:36:30.614Z,56.11
2022-10-25T07:38:58.674Z,55.63
2022-10-25T07:41:26.902Z,55.84
2022-10-25T07:43:53.829Z,55.25
2022-10-25T07:46:20.854Z,53.82
2022-10-25T07:48:47.784Z,53.86
2022-10-25T07:51:17.404Z,52.47
2022-10-25T07:54:03.098Z,51.21
2022-10-25T07:56:30.483Z,50.72
2022-10-25T07:58:58.033Z,49.87
2022-10-25T08:01:28.219Z,49.81
2022-10-25T08:03:55.874Z,48.94
2022-10-25T08:06:24.116Z,48.11
2022-10-25T08:08:51.025Z,48.45
2022-10-25T08:11:18.034Z,48.21
2022-10-25T08:13:44.965Z,47.90
2022-10-25T08:16:12.044Z,48.42
2022-10-25T08:18:38.896Z,47.86
2022-10-25T08:21:06.417Z,46.60
2022-10-25T08:23:33.517Z,45.83
2022-10-25T08:26:01.655Z,44.85
2022-10-25T08:28:30.944Z,44.33
2022-10-25T08:30:58.393Z,43.51
2022-10-25T08:33:25.285Z,44.25
2022-10-25T08:35:52.203Z,44.00
2022-10-25T08:38:19.092Z,43.39
2022-10-25T08:41:17.465Z,43.41
2022-10-25T08:43:56.227Z,42.87
2022-10-25T08:46:33.278Z,43.29
2022-10-25T08:49:27.355Z,42.14
2022-10-25T08:51:56.612Z,42.68
2022-10-25T08:54:37.744Z,42.54
2022-10-25T08:57:26.464Z,42.12
2022-10-25T09:00:10.713Z,42.76
2022-10-25T09:02:47.116Z,42.59
2022-10-25T09:05:25.444Z,41.64
2022-10-25T09:08:32.838Z,42.33
2022-10-25T09:11:26.087Z,41.96
2022-10-25T09:14:10.613Z,41.20
2022-10-25T09:16:51.722Z,40.88
2022-10-25T09:19:44.625Z,40.45
2022-10-25T09:22:31.701Z,40.64
2022-10-25T09:25:10.748Z,40.00
2022-10-25T09:27:43.463Z,39.90
2022-10-25T09:30:12.564Z,39.85
2022-10-25T09:33:06.077Z,39.55
2022-10-25T09:35:53.729Z,39.64
2022-10-25T09:38:39.076Z,40.71
2022-10-25T09:41:12.968Z,40.69
2022-10-25T09:43:45.686Z,40.26
2022-10-25T09:46:18.456Z,41.48
2022-10-25T09:48:53.139Z,41.39
2022-10-25T09:51:55.240Z,41.71
2022-10-25T09:54:31.842Z,42.42
2022-10-25T09:56:59.265Z,42.35
2022-10-25T09:59:28.254Z,42.83
2022-10-25T10:01:55.382Z,43.11
2022-10-25T10:04:40.062Z,43.44
2022-10-25T10:07:22.912Z,45.17
2022-10-25T10:09:51.960Z,45.63
2022-10-25T10:12:48.336Z,46.29
2022-10-25T10:15:21.453Z,46.74
2022-10-25T10:18:01.042Z,46.99
2022-10-25T10:20:27.986Z,47.25
2022-10-25T10:22:55.010Z,47.52
2022-10-25T10:25:26.395Z,47.84
2022-10-25T10:27:56.755Z,48.87
2022-10-25T10:30:29.766Z,48.51
2022-10-25T10:33:01.817Z,49.29
2022-10-25T10:35:36.988Z,48.95
2022-10-25T10:38:30.078Z,50.53
2022-10-25T10:41:26.936Z,50.08
2022-10-25T10:44:14.167Z,49.46
2022-10-25T10:46:46.599Z,49.26
2022-10-25T10:49:15.212Z,48.69
2022-10-25T10:51:45.429Z,47.73
2022-10-25T10:54:26.571Z,46.69
2022-10-25T10:57:01.920Z,46.72
2022-10-25T10:59:31.629Z,46.14
2022-10-25T11:02:17.839Z,45.72
2022-10-25T11:04:53.574Z,45.59
2022-10-25T11:07:42.448Z,45.57
2022-10-25T11:10:15.368Z,44.85
2022-10-25T11:12:43.396Z,45.03
2022-10-25T11:15:14.006Z,44.94
2022-10-25T11:17:54.083Z,46.12
2022-10-25T11:20:48.982Z,45.17
2022-10-25T11:23:39.587Z,47.08
2022-10-25T11:26:35.806Z,47.53
2022-10-25T11:29:23.366Z,47.23
2022-10-25T11:32:01.491Z,46.48
2022-10-25T11:34:43.427Z,47.09
2022-10-25T11:37:15.858Z,45.52
2022-10-25T11:40:01.952Z,45.98
2022-10-25T11:42:50.705Z,46.11
2022-10-25T11:45:32.530Z,46.89
2022-10-25T11:48:19.807Z,47.31
2022-10-25T11:51:43.877Z,46.98
2022-10-25T11:54:34.496Z,46.85
2022-10-25T11:57:32.565Z,48.87
2022-10-25T12:00:07.259Z,48.00
2022-10-25T12:02:43.786Z,47.68
2022-10-25T12:05:25.973Z,48.38
2022-10-25T12:08:37.396Z,47.95
2022-10-25T12:11:09.003Z,47.36
2022-10-25T12:13:42.716Z,47.23
2022-10-25T12:16:17.023Z,46.99
2022-10-25T12:19:06.646Z,46.82
2022-10-25T12:21:43.630Z,47.21
2022-10-25T12:24:23.677Z,47.44
2022-10-25T12:26:54.003Z,46.35
2022-10-25T12:29:26.628Z,46.08
2022-10-25T12:31:58.054Z,45.97
2022-10-25T12:34:43.366Z,46.59
2022-10-25T12:37:39.188Z,46.85
2022-10-25T12:40:14.949Z,51.40
2022-10-25T12:42:49.890Z,47.38
2022-10-25T12:45:48.806Z,49.29
2022-10-25T12:48:46.276Z,47.27
2022-10-25T12:51:33.104Z,46.57
2022-10-25T12:54:14.668Z,46.95
2022-10-25T12:57:02.580Z,45.80
2022-10-25T12:59:54.278Z,45.10
2022-10-25T13:02:58.251Z,45.49
2022-10-25T13:06:02.047Z,45.03
2022-10-25T13:08:29.835Z,44.82
2022-10-25T13:11:00.215Z,45.32
2022-10-25T13:13:31.142Z,45.29
2022-10-25T13:16:01.263Z,44.92
2022-10-25T13:18:40.328Z,45.59
2022-10-25T13:21:10.333Z,46.50
2022-10-25T13:23:43.232Z,45.68
2022-10-25T13:26:32.171Z,45.82
2022-10-25T13:29:23.243Z,45.77
2022-10-25T13:31:58.902Z,46.10
2022-10-25T13:34:34.569Z,46.02
2022-10-25T13:37:03.990Z,47.07
2022-10-25T13:39:43.398Z,46.74
2022-10-25T13:42:16.267Z,46.59
2022-10-25T13:44:59.727Z,46.99
2022-10-25T13:47:47.205Z,46.78
2022-10-25T13:50:31.024Z,47.42
2022-10-25T13:53:14.805Z,47.99
2022-10-25T13:55:48.079Z,47.87
2022-10-25T13:58:32.109Z,48.72
2022-10-25T14:01:17.714Z,49.19
2022-10-25T14:04:02.809Z,49.78
2022-10-25T14:06:52.264Z,50.55
2022-10-25T14:09:52.204Z,50.98
2022-10-25T14:12:21.668Z,51.52
2022-10-25T14:14:48.366Z,51.99
2022-10-25T14:17:31.595Z,52.40
2022-10-25T14:20:02.997Z,52.76
2022-10-25T14:22:38.486Z,52.87
2022-10-25T14:25:15.133Z,53.38
2022-10-25T14:27:42.007Z,53.09
2022-10-25T14:30:27.490Z,53.44
2022-10-25T14:33:03.953Z,53.55
2022-10-25T14:35:34.893Z,53.84
2022-10-25T14:38:16.345Z,53.91
2022-10-25T14:40:51.554Z,54.23
2022-10-25T14:43:38.334Z,54.28
2022-10-25T14:46:14.300Z,54.62
2022-10-25T14:48:45.422Z,54.98
2022-10-25T14:51:21.734Z,54.76
2022-10-25T14:53:56.000Z,54.05
2022-10-25T14:56:30.568Z,54.79
2022-10-25T14:58:57.957Z,54.52
2022-10-25T15:01:25.397Z,55.44
2022-10-25T15:03:54.857Z,55.37
2022-10-25T15:06:25.287Z,55.54
2022-10-25T15:09:16.142Z,55.67
2022-10-25T15:12:04.387Z,56.29
2022-10-25T15:14:31.651Z,56.37
2022-10-25T15:17:03.071Z,57.36
2022-10-25T15:19:29.923Z,57.70
2022-10-25T15:22:07.743Z,57.98
2022-10-25T15:24:44.819Z,58.63
2022-10-25T15:27:35.464Z,59.58
2022-10-25T15:30:05.000Z,59.13
2022-10-25T15:32:33.576Z,59.94
2022-10-25T15:35:01.953Z,60.13
2022-10-25T15:37:30.134Z,60.22
2022-10-25T15:39:57.647Z,60.83
2022-10-25T15:42:26.181Z,61.42
2022-10-25T15:44:53.066Z,61.70
2022-10-25T15:47:34.893Z,62.25
2022-10-25T15:50:03.880Z,61.89
2022-10-25T15:52:30.857Z,62.36
2022-10-25T15:54:57.665Z,62.85
2022-10-25T15:57:27.496Z,63.25
2022-10-25T15:59:54.331Z,63.16
2022-10-25T16:02:27.210Z,63.58
2022-10-25T16:04:54.248Z,63.36
2022-10-25T16:07:21.046Z,63.75
2022-10-25T16:09:47.926Z,64.52
2022-10-25T16:12:21.694Z,64.71
2022-10-25T16:14:50.674Z,64.90
2022-10-25T16:17:17.521Z,65.38
2022-10-25T16:19:44.371Z,65.67
2022-10-25T16:22:11.144Z,66.11
2022-10-25T16:24:38.282Z,66.27
2022-10-25T16:27:05.178Z,66.94
2022-10-25T16:29:32.104Z,66.70
2022-10-25T16:31:59.101Z,67.07
2022-10-25T16:34:25.967Z,67.27
2022-10-25T16:36:52.954Z,67.49
2022-10-25T16:39:19.912Z,67.36
2022-10-25T16:41:47.841Z,67.34
2022-10-25T16:44:19.453Z,67.05
2022-10-25T16:46:46.752Z,68.11
2022-10-25T16:49:13.815Z,68.04
2022-10-25T16:51:41.072Z,68.21
2022-10-25T16:54:08.226Z,68.70
2022-10-25T16:56:35.891Z,68.75
2022-10-25T16:59:03.393Z,69.49
2022-10-25T17:01:40.019Z,69.84
2022-10-25T17:04:10.794Z,70.23
2022-10-25T17:06:42.008Z,70.66
2022-10-25T17:09:09.614Z,71.55
2022-10-25T17:11:37.686Z,72.30
2022-10-25T17:14:04.722Z,71.67
2022-10-25T17:16:31.776Z,72.21
2022-10-25T17:18:58.739Z,72.92
2022-10-25T17:21:25.582Z,72.67
2022-10-25T17:23:52.355Z,72.88
2022-10-25T17:26:19.239Z,72.58
2022-10-25T17:28:46.076Z,73.48
2022-10-25T17:31:14.663Z,73.73
2022-10-25T17:33:42.694Z,73.75
2022-10-25T17:36:12.189Z,73.75
2022-10-25T17:38:39.052Z,73.97
2022-10-25T17:41:06.431Z,74.45
2022-10-25T17:43:35.963Z,74.66
2022-10-25T17:46:08.274Z,74.53
2022-10-25T17:48:35.750Z,74.78
2022-10-25T17:51:04.653Z,74.94
2022-10-25T17:53:31.632Z,74.82
2022-10-25T17:55:58.515Z,75.05
2022-10-25T17:58:26.061Z,75.31
2022-10-25T18:00:54.607Z,75.66
2022-10-25T18:03:21.614Z,76.05
2022-10-25T18:05:48.624Z,76.04
2022-10-25T18:08:15.921Z,76.08
2022-10-25T18:10:42.942Z,76.68
2022-10-25T18:13:09.714Z,76.85
2022-10-25T18:15:38.393Z,77.18
2022-10-25T18:18:05.383Z,77.18
2022-10-25T18:20:32.448Z,77.28
2022-10-25T18:22:59.231Z,77.51
2022-10-25T18:25:26.073Z,77.14
2022-10-25T18:27:52.831Z,77.15
2022-10-25T18:30:19.635Z,77.32
2022-10-25T18:32:46.518Z,77.81
2022-10-25T18:35:13.343Z,77.88
2022-10-25T18:37:40.322Z,78.45
2022-10-25T18:40:08.583Z,78.80
2022-10-25T18:42:36.090Z,79.16
2022-10-25T18:45:04.252Z,79.62
2022-10-25T18:47:31.165Z,78.64
2022-10-25T18:49:58.015Z,79.42
2022-10-25T18:52:24.910Z,79.68
2022-10-25T18:54:55.284Z,79.63
2022-10-25T18:57:22.148Z,79.10
2022-10-25T18:59:48.987Z,79.32
2022-10-25T19:02:16.053Z,79.25
2022-10-25T19:04:42.998Z,80.16
2022-10-25T19:07:09.761Z,80.07
2022-10-25T19:09:36.548Z,79.63
2022-10-25T19:12:03.392Z,79.90
2022-10-25T19:14:30.156Z,79.75
2022-10-25T19:16:57.004Z,79.83
2022-10-25T19:19:23.755Z,79.39
2022-10-25T19:21:50.647Z,79.24
2022-10-25T19:24:17.691Z,79.25
2022-10-25T19:26:45.077Z,79.29
2022-10-25T19:29:11.937Z,79.95
2022-10-25T19:31:38.820Z,79.28
2022-10-25T19:34:05.662Z,81.21
2022-10-25T19:36:32.562Z,81.69
2022-10-25T19:39:00.001Z,80.51
2022-10-25T19:41:26.848Z,80.56
2022-10-25T19:43:53.875Z,80.83
2022-10-25T19:46:21.654Z,80.87
2022-10-25T19:48:48.678Z,81.20
2022-10-25T19:51:18.711Z,81.31
2022-10-25T19:53:46.065Z,80.92
2022-10-25T19:56:18.333Z,81.28
2022-10-25T19:58:45.610Z,81.58
2022-10-25T20:01:16.045Z,81.82
2022-10-25T20:03:44.573Z,81.56
2022-10-25T20:06:18.869Z,82.17
2022-10-25T20:08:48.715Z,82.65
2022-10-25T20:11:17.127Z,82.45
2022-10-25T20:13:44.376Z,82.89
2022-10-25T20:16:13.950Z,82.98
2022-10-25T20:18:42.158Z,82.98
2022-10-25T20:21:17.916Z,83.01
2022-10-25T20:23:49.901Z,83.61
2022-10-25T20:26:22.734Z,82.88
2022-10-25T20:31:26.319Z,82.81
2022-10-25T20:33:54.445Z,82.93
2022-10-25T20:36:21.464Z,82.68
2022-10-25T20:38:48.479Z,82.77
2022-10-25T20:41:18.543Z,82.04
2022-10-25T20:43:48.097Z,84.03
2022-10-25T20:46:15.997Z,84.05
2022-10-25T20:48:43.154Z,83.94
2022-10-25T20:51:11.537Z,83.15
2022-10-25T20:53:42.991Z,83.15
2022-10-25T20:56:10.153Z,83.23
2022-10-25T20:58:36.973Z,83.10
2022-10-25T21:01:04.299Z,83.50
2022-10-25T21:03:32.038Z,84.78
2022-10-25T21:06:00.952Z,85.13
2022-10-25T21:08:27.954Z,84.87
2022-10-25T21:10:56.432Z,83.93
2022-10-25T21:13:24.531Z,85.37
2022-10-25T21:15:52.950Z,84.97
2022-10-25T21:18:20.284Z,85.55
2022-10-25T21:20:48.865Z,85.38
2022-10-25T21:23:15.696Z,84.92
2022-10-25T21:25:42.516Z,84.60
2022-10-25T21:28:09.342Z,84.85
2022-10-25T21:30:36.290Z,85.14
2022-10-25T21:33:04.462Z,85.16
2022-10-25T21:35:32.735Z,83.89
2022-10-25T21:37:59.683Z,83.53
2022-10-25T21:40:27.462Z,82.91
2022-10-25T21:42:57.852Z,84.35
2022-10-25T21:45:24.763Z,84.92
2022-10-25T21:47:51.817Z,84.88
2022-10-25T21:50:18.778Z,85.15
2022-10-25T21:52:45.712Z,84.41
2022-10-25T21:55:12.513Z,84.81
2022-10-25T21:57:39.343Z,84.68
2022-10-25T22:00:06.770Z,85.53
2022-10-25T22:02:33.815Z,85.94
2022-10-25T22:05:00.910Z,86.63
2022-10-25T22:07:27.764Z,86.06
2022-10-25T22:09:54.572Z,86.15
2022-10-25T22:12:21.337Z,86.75
2022-10-25T22:14:48.854Z,86.91
2022-10-25T22:17:15.691Z,87.07
2022-10-25T22:19:42.484Z,86.45
2022-10-25T22:22:09.356Z,86.88
2022-10-25T22:24:36.204Z,86.53
2022-10-25T22:27:03.043Z,86.59
2022-10-25T22:29:29.942Z,86.50
2022-10-25T22:33:35.606Z,86.31
2022-10-25T22:36:10.077Z,88.21
2022-10-25T22:38:37.646Z,88.72
2022-10-25T22:41:07.252Z,88.75
2022-10-25T22:43:36.156Z,89.75
2022-10-25T22:46:05.230Z,89.77
2022-10-25T22:48:33.749Z,88.83
2022-10-25T22:51:01.409Z,88.38
2022-10-25T22:53:29.054Z,88.36
2022-10-25T22:56:03.807Z,88.39
2022-10-25T22:58:34.842Z,87.86
2022-10-25T23:03:41.821Z,87.74
2022-10-25T23:06:14.909Z,87.92
2022-10-25T23:08:43.064Z,87.67
2022-10-25T23:11:19.117Z,88.09
2022-10-25T23:13:46.576Z,87.88
2022-10-25T23:16:15.355Z,87.50
2022-10-25T23:18:42.917Z,87.52
2022-10-25T23:21:22.044Z,87.87
2022-10-25T23:23:49.773Z,87.60
2022-10-25T23:26:20.287Z,87.89
2022-10-25T23:28:47.420Z,87.90
2022-10-25T23:31:14.905Z,88.05
2022-10-25T23:33:42.657Z,87.60
2022-10-25T23:36:15.719Z,87.58
2022-10-25T23:38:46.588Z,87.54
2022-10-25T23:41:13.826Z,87.56
2022-10-25T23:43:40.682Z,87.85
2022-10-25T23:46:08.653Z,87.44
2022-10-25T23:48:36.159Z,87.99
2022-10-25T23:51:06.312Z,88.15
2022-10-25T23:53:33.851Z,87.08
2022-10-25T23:56:01.232Z,87.04
2022-10-25T23:58:28.204Z,87.50
